aviador You're here:

YKRY Decoded Metar

in
Report Time2018-07-19 18:00:00
UTC Time2018-07-19 18:45:34
Flight Rules vfr VFR
Wind050° at 04 kt
W.Decomp.*RWY 05: 4.0 kt HW -0 kt LCW
RWY 34: 1.4 kt HW 3.8 kt RCW
W.Rank050° ranks 22
Current wind is below 050° avg. (4.3)
Visibility9999 m
Phenomena:N/A
Clouds:Scattered 095 Hf
Expected CloudBase > 400 ft AGL from Temp-Dew spread
CeilingNone
Temp05°C
Dew Point04°C (93% RH)
AAT2.2°C
QNH1018 hPa
Raw Report
METAR YKRY 191800Z AUTO 05004KT 9999 // SCT095 05/04 Q1018=

Extra information for YKRY:More info

Social comments